Chengdu, China
Current Conditions -  °F | °C
As of 8:00 AM on Thursday 23 Oct 2014 (Local Time) from ZUUU Reporting Station
Haze Haze  
Wind Chill: 59°   Ceiling: Unl
Heat Index: 59°   Visibility: 1mi
Dew Point: 55°   Wind: 0mph
Humidity: 88%   Direction: NA
Pressure: 30.18"   Gusts: NA
Location:  30.67°N, 104.07°E
Report Text: ZUUU 230000Z 00000MPS 1600 R02L/0900V1200D R02R/P2000 BRNSC15/13 Q1022 BECMG TL0130 3000
Loading
Personal Weather Stations






























Interactive Weather Map
Tropical Storm Tracking
New forecast layout! Learn more

10-Day Weather Forecast

Advertisements
Track Severe Weather on mobile